Ama, LA

9:46 AM CST on December 19, 2014 (GMT -0600)
Willowridge Estates | Change Station
CLOSE
Current Station
Personal Weather Station
Location: Luling, LA
Elevation: 14 ft
Nearby Weather Stations

Elev 14 ft 29.89 °N, 90.34 °W | Updated 4 minutes ago

Overcast
Overcast
57.2 °F
Feels Like 57.2 °F
N
1.0
Wind Variable Wind from East
Gusts 7.0 mph

Today
High -- | Low -- °F
--% Chance of Precip.
Yesterday
High -- | Low -- °F
Precip. -- in
6:51 AM 5:05 PM
Waning Crescent, 7% visible
Pressure 30.15 in
Visibility 10.0 miles
Clouds Mostly Cloudy 800 ft
Mostly Cloudy 2800 ft
Overcast 5000 ft
Dew Point 56 °F
Humidity 94%
Rainfall 0.00 in
Snow Depth Not available.
UV 1 out of 12
Pollen .60 out of 12
Air Quality Not available.
Flu Activity Not available.
SPECI KMSY 191542Z 07013G21KT 10SM BKN008 BKN028 OVC050 13/11 A3015 RMK AO2 T01330111

More Conditions Fewer Conditions

Pressure 30.15 in
Visibility 10.0 miles
Clouds Mostly Cloudy 800 ft
Mostly Cloudy 2800 ft
Overcast 5000 ft
Dew Point 56 °F
Humidity 94%
Rainfall 0.00 in
Snow Depth Not available.
UV 1 out of 12
Pollen .60 out of 12
Air Quality Not available.
Flu Activity Not available.
SPECI KMSY 191542Z 07013G21KT 10SM BKN008 BKN028 OVC050 13/11 A3015 RMK AO2 T01330111

More Conditions Fewer Conditions

10-Day Weather Forecast

Almanac

Astronomy

Dec. 19, 2014 Rise Set
Actual Time
Civil Twilight
Nautical Twilight
Astronomical Twilight
Moon
Length of Visible Light
Length of Day
Tomorrow will be .
, % of the Moon is Illuminated

Today's Extremes

State Highs State Lows

Community

WunderPhotos

Upload Photos

1,778,997 photos uploaded!

WunderBlogs® & News

Nearby

Air Quality

  Air Quality AQ Index Pollutant
Not available.

Snow Depth

Station Depth Elevation

Earthquake Activity

City Distance Mag. Time & Date
Minimum magnitude displayed is 2.5.

Coastal Water Temperatures

Place Temperature

Nearby Weather Stations